x

Isle Of Shoals, Nh (iosn3) Weather Station

7:00 - Sun 21st Dec 2014 All times are EST. -5 hours from GMT.

  • Wind
    16mph, 17mph gusts
  • Ar Temp 33°f
  • Sea Pressure 1027.2mb
  • Isle Of Shoals, Nh
  • Isle Of Shoals, Nh

More Historic Weather Station data

Upgrade to MSW Pro to gain access to the past 30 days of data for over 8000 Wavebouys and Weather Stations around the globe.

Join Pro

Comparision Forecast

View Surf forecast
   
Dom 12/21 7:00 16 17 mph 1027.2mb 33f
6:00 11 15 mph 1026.9mb 34f
5:00 10 11 mph 1026.3mb 34f
4:00 7 8 mph 1026.2mb 33f
3:00 7 9 mph 1026.2mb 33f
2:00 10 11 mph 1025.9mb 32f
1:00 16 18 mph 1025.5mb 31f
12:00 16 17 mph 1025.7mb 30f
11:00 15 17 mph 1026.4mb 28f
10:00 15 16 mph 1027.1mb 27f
9:00 14 15 mph 1027mb 26f
8:00 15 17 mph 1026.6mb 26f
7:00 18 21 mph 1026.5mb 27f
6:00 18 22 mph 1026mb 27f
5:00 20 21 mph 1025.6mb 28f
4:00 17 21 mph 1025.7mb 28f
3:00 17 21 mph 1025.6mb 27f
2:00 23 25 mph 1025.2mb 28f
1:00 25 26 mph 1025mb 29f
12:00 24 26 mph 1025.2mb 32f
Sáb 12/20 11:00 21 23 mph 1025.5mb 34f
10:00 20 23 mph 1025.7mb 35f
9:00 11 14 mph 1026.4mb 34f
8:00 15 17 mph 1026.4mb 34f
7:00 15 18 mph 1026mb 34f
6:00 20 23 mph 1025.5mb 34f
5:00 20 22 mph 1025mb 34f
4:00 21 23 mph 1024.7mb 33f
3:00 21 24 mph 1024.3mb 33f
2:00 22 25 mph 1024.3mb 33f
1:00 23 26 mph 1024.2mb 31f
12:00 23 24 mph 1024.3mb 30f
11:00 24 28 mph 1024.8mb 30f
10:00 24 28 mph 1025.2mb 29f
9:00 22 24 mph 1025.2mb 29f
8:00 15 18 mph 1024.6mb 32f
7:00 18 23 mph 1023.4mb 32f
6:00 21 26 mph 1022.7mb 32f
5:00 20 22 mph 1022.2mb 32f
4:00 20 23 mph 1021.5mb 32f
3:00 14 16 mph 1021.6mb 31f
2:00 17 20 mph 1021.2mb 31f
1:00 15 17 mph 1020.6mb 31f
12:00 14 16 mph 1019.9mb 31f
Sex 12/19 11:00 14 15 mph 1019.5mb 31f
10:00 14 16 mph 1019.1mb 32f
9:00 15 16 mph 1018.3mb 32f
8:00 16 17 mph 1017.7mb 31f
7:00 18 21 mph 1016.8mb 32f
6:00 21 23 mph 1015.5mb 32f
5:00 21 22 mph 1014.9mb 33f
4:00 17 20 mph 1014mb 36f
3:00 17 18 mph 1013.1mb 37f
2:00 6 7 mph 1012.8mb 37f
1:00 3 5 mph 1012.6mb 37f
12:00 5 6 mph 1012.7mb 36f
11:00 11 14 mph 1012.8mb 34f
10:00 15 16 mph 1013mb 33f
9:00 18 21 mph 1012.4mb 32f
8:00 17 20 mph 1011.6mb 32f
7:00 16 18 mph 1011.2mb 32f
6:00 16 18 mph 1010.6mb 33f
5:00 16 18 mph 1010mb 33f
4:00 16 20 mph 1010mb 33f
3:00 21 24 mph 1009.7mb 34f
2:00 18 22 mph 1009.8mb 34f
1:00 22 24 mph 1009.1mb 35f
12:00 21 22 mph 1009mb 35f
Qui 12/18 11:00 24 26 mph 1008.8mb 36f
10:00 25 28 mph 1008.8mb 36f
9:00 29 33 mph 1008.4mb 37f
8:00 25 28 mph 1008.7mb 38f
7:00 25 30 mph 1008.2mb 39f
6:00 20 23 mph 1008.2mb 40f
5:00 25 30 mph 1007.1mb 40f
4:00 28 31 mph 1006.6mb 40f
3:00 26 29 mph 1006mb 41f
2:00 26 30 mph 1005.5mb 41f
1:00 29 32 mph 1004.8mb 41f
12:00 31 34 mph 1004.7mb 41f
11:00 29 33 mph 1005.1mb 40f
10:00 30 33 mph 1005.5mb 39f
9:00 24 26 mph 1005.2mb 38f
8:00 24 28 mph 1004.8mb 37f
7:00 24 25 mph 1004.3mb 38f
6:00 23 26 mph 1003.8mb 38f
5:00 25 28 mph 1003.4mb 38f
4:00 24 29 mph 1003.5mb 39f
3:00 25 29 mph 1003.4mb 40f
2:00 23 25 mph 1003.6mb 41f